createdAt,value
2022-12-07T00:00:45.499Z,99.99
2022-12-07T00:01:45.565Z,99.99
2022-12-07T00:02:45.496Z,99.99
2022-12-07T00:03:45.565Z,99.99
2022-12-07T00:04:45.452Z,99.99
2022-12-07T00:05:45.440Z,99.99
2022-12-07T00:06:45.432Z,99.99
2022-12-07T00:07:45.492Z,99.99
2022-12-07T00:08:45.439Z,99.99
2022-12-07T00:09:45.399Z,99.99
2022-12-07T00:10:45.386Z,99.99
2022-12-07T00:11:46.477Z,99.99
2022-12-07T00:12:45.364Z,99.99
2022-12-07T00:13:45.352Z,99.99
2022-12-07T00:14:45.368Z,99.99
2022-12-07T00:15:45.330Z,99.99
2022-12-07T00:16:45.371Z,99.99
2022-12-07T00:17:45.308Z,99.99
2022-12-07T00:18:45.317Z,99.99
2022-12-07T00:19:45.304Z,99.99
2022-12-07T00:20:45.285Z,99.99
2022-12-07T00:21:45.267Z,99.99
2022-12-07T00:22:45.260Z,99.99
2022-12-07T00:23:45.248Z,99.99
2022-12-07T00:24:45.255Z,99.99
2022-12-07T00:25:45.229Z,99.99
2022-12-07T00:26:45.229Z,99.99
2022-12-07T00:27:45.200Z,99.99
2022-12-07T00:28:45.182Z,99.99
2022-12-07T00:29:45.194Z,99.99
2022-12-07T00:30:45.164Z,99.99
2022-12-07T00:31:45.260Z,99.99
2022-12-07T00:32:45.141Z,99.99
2022-12-07T00:33:45.139Z,99.99
2022-12-07T00:34:45.153Z,99.99
2022-12-07T00:35:45.119Z,99.99
2022-12-07T00:36:45.106Z,99.99
2022-12-07T00:37:45.086Z,99.99
2022-12-07T00:38:45.095Z,99.99
2022-12-07T00:39:45.066Z,99.99
2022-12-07T00:40:45.052Z,99.99
2022-12-07T00:41:45.061Z,99.99
2022-12-07T00:42:45.032Z,99.99
2022-12-07T00:43:45.045Z,99.99
2022-12-07T00:44:45.004Z,99.99
2022-12-07T00:45:45.174Z,99.99
2022-12-07T00:46:45.009Z,99.99
2022-12-07T00:47:44.994Z,99.99
2022-12-07T00:48:44.984Z,99.99
2022-12-07T00:49:44.952Z,99.99
2022-12-07T00:50:44.957Z,99.99
2022-12-07T00:51:44.950Z,99.99
2022-12-07T00:52:44.941Z,99.99
2022-12-07T00:53:44.917Z,99.99
2022-12-07T00:54:44.901Z,99.99
2022-12-07T00:55:44.887Z,99.99
2022-12-07T00:56:44.894Z,99.99
2022-12-07T00:57:44.868Z,99.99
2022-12-07T00:58:44.848Z,99.99
2022-12-07T00:59:44.842Z,99.99
2022-12-07T01:00:44.824Z,99.99
2022-12-07T01:01:44.924Z,99.99
2022-12-07T01:02:44.805Z,99.99
2022-12-07T01:03:44.865Z,99.99
2022-12-07T01:04:44.781Z,99.99
2022-12-07T01:05:44.792Z,99.99
2022-12-07T01:06:44.801Z,99.99
2022-12-07T01:07:44.846Z,99.99
2022-12-07T01:08:44.737Z,99.99
2022-12-07T01:09:44.736Z,99.99
2022-12-07T01:10:44.715Z,99.99
2022-12-07T01:11:44.729Z,99.99
2022-12-07T01:12:44.691Z,99.99
2022-12-07T01:13:44.687Z,99.99
2022-12-07T01:14:44.689Z,99.99
2022-12-07T01:15:44.670Z,99.99
2022-12-07T01:16:44.729Z,99.99
2022-12-07T01:17:44.640Z,99.99
2022-12-07T01:18:44.646Z,99.99
2022-12-07T01:19:44.619Z,99.99
2022-12-07T01:20:44.608Z,99.99
2022-12-07T01:21:44.602Z,99.99
2022-12-07T01:22:44.605Z,99.99
2022-12-07T01:23:44.593Z,99.99
2022-12-07T01:24:44.570Z,99.99
2022-12-07T01:25:44.559Z,99.99
2022-12-07T01:26:44.538Z,99.99
2022-12-07T01:27:44.531Z,99.99
2022-12-07T01:28:44.552Z,99.99
2022-12-07T01:29:44.512Z,99.99
2022-12-07T01:30:44.572Z,99.99
2022-12-07T01:31:44.498Z,99.99
2022-12-07T01:32:44.471Z,99.99
2022-12-07T01:33:44.466Z,99.99
2022-12-07T01:34:44.485Z,99.99
2022-12-07T01:35:44.444Z,99.99
2022-12-07T01:36:44.431Z,99.99
2022-12-07T01:37:44.426Z,99.99
2022-12-07T01:38:44.427Z,99.99
2022-12-07T01:39:44.416Z,99.99
2022-12-07T01:40:44.380Z,99.99
2022-12-07T01:41:44.532Z,99.99
2022-12-07T01:42:44.378Z,99.99
2022-12-07T01:43:44.372Z,99.99
2022-12-07T01:44:44.346Z,99.99
2022-12-07T01:45:44.433Z,99.99
2022-12-07T01:46:44.315Z,99.99
2022-12-07T01:47:44.309Z,99.99
2022-12-07T01:48:44.311Z,99.99
2022-12-07T01:49:44.288Z,99.99
2022-12-07T01:50:44.290Z,99.99
2022-12-07T01:51:44.289Z,99.99
2022-12-07T01:52:44.253Z,99.99
2022-12-07T01:53:44.247Z,99.99
2022-12-07T01:54:44.242Z,99.99
2022-12-07T01:55:44.239Z,99.99
2022-12-07T01:56:44.209Z,99.99
2022-12-07T01:57:44.207Z,99.99
2022-12-07T01:58:44.201Z,99.99
2022-12-07T01:59:44.180Z,99.99
2022-12-07T02:00:44.173Z,99.99
2022-12-07T02:01:44.216Z,99.99
2022-12-07T02:02:44.183Z,99.99
2022-12-07T02:03:44.138Z,99.99
2022-12-07T02:04:44.140Z,99.99
2022-12-07T02:05:44.115Z,99.99
2022-12-07T02:06:44.108Z,99.99
2022-12-07T02:07:44.145Z,99.99
2022-12-07T02:08:44.102Z,99.99
2022-12-07T02:09:44.074Z,99.99
2022-12-07T02:10:44.071Z,99.99
2022-12-07T02:11:44.045Z,99.99
2022-12-07T02:12:44.049Z,99.99
2022-12-07T02:13:44.016Z,99.99
2022-12-07T02:14:44.010Z,99.99
2022-12-07T02:15:44.154Z,99.99
2022-12-07T02:16:44.012Z,99.99
2022-12-07T02:17:43.980Z,99.99
2022-12-07T02:18:43.960Z,99.99
2022-12-07T02:19:43.953Z,99.99
2022-12-07T02:20:43.956Z,99.99
2022-12-07T02:21:43.936Z,99.99
2022-12-07T02:22:43.918Z,99.99
2022-12-07T02:23:43.915Z,99.99
2022-12-07T02:24:43.902Z,99.99
2022-12-07T02:25:43.885Z,99.99
2022-12-07T02:26:43.907Z,99.99
2022-12-07T02:27:43.893Z,99.99
2022-12-07T02:28:43.855Z,99.99
2022-12-07T02:29:43.863Z,99.99
2022-12-07T02:30:43.899Z,99.99
2022-12-07T02:31:43.839Z,99.99
2022-12-07T02:32:43.820Z,99.99
2022-12-07T02:33:43.797Z,99.91
2022-12-07T02:34:43.786Z,99.99
2022-12-07T02:35:43.786Z,99.65
2022-12-07T02:36:43.762Z,99.59
2022-12-07T02:37:43.779Z,99.70
2022-12-07T02:38:43.760Z,99.07
2022-12-07T02:39:43.731Z,99.34
2022-12-07T02:40:43.764Z,99.70
2022-12-07T02:41:43.707Z,99.07
2022-12-07T02:42:43.730Z,99.07
2022-12-07T02:43:43.716Z,99.49
2022-12-07T02:44:43.675Z,99.70
2022-12-07T02:45:43.664Z,99.59
2022-12-07T02:46:43.688Z,99.70
2022-12-07T02:47:43.666Z,99.49
2022-12-07T02:48:43.641Z,99.38
2022-12-07T02:49:43.622Z,99.38
2022-12-07T02:50:43.607Z,99.49
2022-12-07T02:51:43.622Z,99.49
2022-12-07T02:52:43.586Z,99.07
2022-12-07T02:53:43.587Z,99.49
2022-12-07T02:54:43.568Z,99.49
2022-12-07T02:55:43.570Z,99.70
2022-12-07T02:56:43.539Z,99.49
2022-12-07T02:57:43.554Z,99.59
2022-12-07T02:58:43.532Z,99.80
2022-12-07T02:59:43.537Z,99.49
2022-12-07T03:00:43.495Z,99.59
2022-12-07T03:01:43.536Z,99.85
2022-12-07T03:02:43.562Z,99.74
2022-12-07T03:03:43.466Z,99.64
2022-12-07T03:04:43.456Z,99.64
2022-12-07T03:05:43.450Z,99.64
2022-12-07T03:06:43.437Z,99.74
2022-12-07T03:07:43.484Z,99.74
2022-12-07T03:08:43.409Z,99.54
2022-12-07T03:09:43.402Z,99.54
2022-12-07T03:10:43.382Z,99.58
2022-12-07T03:11:43.381Z,99.43
2022-12-07T03:12:43.382Z,99.32
2022-12-07T03:13:43.352Z,99.58
2022-12-07T03:14:43.375Z,99.68
2022-12-07T03:15:43.432Z,99.16
2022-12-07T03:16:43.340Z,99.79
2022-12-07T03:17:43.314Z,99.68
2022-12-07T03:18:43.294Z,99.68
2022-12-07T03:19:43.290Z,99.79
2022-12-07T03:20:43.278Z,99.68
2022-12-07T03:21:43.286Z,99.79
2022-12-07T03:22:43.277Z,99.68
2022-12-07T03:23:43.247Z,99.79
2022-12-07T03:24:43.228Z,99.63
2022-12-07T03:25:43.222Z,99.84
2022-12-07T03:26:43.212Z,99.79
2022-12-07T03:27:43.228Z,99.37
2022-12-07T03:28:43.185Z,99.84
2022-12-07T03:29:43.176Z,99.84
2022-12-07T03:30:43.278Z,99.63
2022-12-07T03:31:43.227Z,99.63
2022-12-07T03:32:43.173Z,99.84
2022-12-07T03:33:43.133Z,99.31
2022-12-07T03:34:43.116Z,99.31
2022-12-07T03:35:43.127Z,99.52
2022-12-07T03:36:43.094Z,99.63
2022-12-07T03:37:43.087Z,99.84
2022-12-07T03:38:43.082Z,99.84
2022-12-07T03:39:43.090Z,99.52
2022-12-07T03:40:43.052Z,99.41
2022-12-07T03:41:45.358Z,99.21
2022-12-07T03:42:43.050Z,99.21
2022-12-07T03:43:43.028Z,99.67
2022-12-07T03:44:43.022Z,99.67
2022-12-07T03:45:42.999Z,99.25
2022-12-07T03:46:43.121Z,99.67
2022-12-07T03:47:43.004Z,99.67
2022-12-07T03:48:42.968Z,99.77
2022-12-07T03:49:42.962Z,99.98
2022-12-07T03:50:42.937Z,99.88
2022-12-07T03:51:42.937Z,99.77
2022-12-07T03:52:42.937Z,99.67
2022-12-07T03:53:42.915Z,99.21
2022-12-07T03:54:42.894Z,99.52
2022-12-07T03:55:42.888Z,99.57
2022-12-07T03:56:42.872Z,99.63
2022-12-07T03:57:42.894Z,99.73
2022-12-07T03:58:42.852Z,99.63
2022-12-07T03:59:42.865Z,99.84
2022-12-07T04:00:42.833Z,99.52
2022-12-07T04:01:42.868Z,99.52
2022-12-07T04:02:42.981Z,99.84
2022-12-07T04:03:42.798Z,99.73
2022-12-07T04:04:42.783Z,99.73
2022-12-07T04:05:42.779Z,99.58
2022-12-07T04:06:42.760Z,99.58
2022-12-07T04:07:42.864Z,99.63
2022-12-07T04:08:42.745Z,99.58
2022-12-07T04:09:42.738Z,99.63
2022-12-07T04:10:42.719Z,99.63
2022-12-07T04:11:42.719Z,99.58
2022-12-07T04:12:42.703Z,99.52
2022-12-07T04:13:42.712Z,99.63
2022-12-07T04:14:42.683Z,99.21
2022-12-07T04:15:42.749Z,99.58
2022-12-07T04:16:44.643Z,99.58
2022-12-07T04:17:42.648Z,99.73
2022-12-07T04:18:42.665Z,99.68
2022-12-07T04:19:42.628Z,99.58
2022-12-07T04:20:42.607Z,99.68
2022-12-07T04:21:42.608Z,99.48
2022-12-07T04:22:42.588Z,99.52
2022-12-07T04:23:42.620Z,99.58
2022-12-07T04:24:42.560Z,99.79
2022-12-07T04:25:42.557Z,99.68
2022-12-07T04:26:42.542Z,99.63
2022-12-07T04:27:42.531Z,99.63
2022-12-07T04:28:42.524Z,99.79
2022-12-07T04:29:42.592Z,99.48
2022-12-07T04:30:42.505Z,99.37
2022-12-07T04:31:42.529Z,99.27
2022-12-07T04:32:42.477Z,99.58
2022-12-07T04:33:42.465Z,99.84
2022-12-07T04:34:42.488Z,99.68
2022-12-07T04:35:42.447Z,99.84
2022-12-07T04:36:42.454Z,99.84
2022-12-07T04:37:42.426Z,99.73
2022-12-07T04:38:42.403Z,99.73
2022-12-07T04:39:42.436Z,99.84
2022-12-07T04:40:42.400Z,99.84
2022-12-07T04:41:42.395Z,99.73
2022-12-07T04:42:42.389Z,99.63
2022-12-07T04:43:42.378Z,99.63
2022-12-07T04:44:42.373Z,99.63
2022-12-07T04:45:42.333Z,99.84
2022-12-07T04:46:42.402Z,99.84
2022-12-07T04:47:42.333Z,99.63
2022-12-07T04:48:42.327Z,99.73
2022-12-07T04:49:42.293Z,99.63
2022-12-07T04:50:46.170Z,99.94
2022-12-07T04:51:42.266Z,99.73
2022-12-07T04:52:42.320Z,99.63
2022-12-07T04:53:42.264Z,99.31
2022-12-07T04:54:42.282Z,99.63
2022-12-07T04:55:42.219Z,99.52
2022-12-07T04:56:42.213Z,99.21
2022-12-07T04:57:42.220Z,99.63
2022-12-07T04:58:42.237Z,99.58
2022-12-07T04:59:45.634Z,99.31
2022-12-07T05:00:42.276Z,99.58
2022-12-07T05:01:42.231Z,99.63
2022-12-07T05:02:42.150Z,99.16
2022-12-07T05:03:42.155Z,99.58
2022-12-07T05:04:42.123Z,99.79
2022-12-07T05:05:42.111Z,99.16
2022-12-07T05:06:42.124Z,99.58
2022-12-07T05:07:42.180Z,99.68
2022-12-07T05:08:42.086Z,99.58
2022-12-07T05:09:42.082Z,99.68
2022-12-07T05:10:42.061Z,99.79
2022-12-07T05:11:42.045Z,99.74
2022-12-07T05:12:42.109Z,99.99
2022-12-07T05:13:42.020Z,99.99
2022-12-07T05:14:42.012Z,99.99
2022-12-07T05:15:42.027Z,99.99
2022-12-07T05:16:42.165Z,99.99
2022-12-07T05:17:41.981Z,99.99
2022-12-07T05:18:41.973Z,99.99
2022-12-07T05:19:41.968Z,99.99
2022-12-07T05:20:42.849Z,99.99
2022-12-07T05:21:41.953Z,99.99
2022-12-07T05:22:41.942Z,99.99
2022-12-07T05:23:41.914Z,99.99
2022-12-07T05:24:41.925Z,99.99
2022-12-07T05:25:41.916Z,99.99
2022-12-07T05:26:41.881Z,99.99
2022-12-07T05:27:41.862Z,99.99
2022-12-07T05:28:41.862Z,99.85
2022-12-07T05:29:41.889Z,99.99
2022-12-07T05:30:41.835Z,99.95
2022-12-07T05:31:41.991Z,99.99
2022-12-07T05:32:41.835Z,99.99
2022-12-07T05:33:41.801Z,99.99
2022-12-07T05:34:41.794Z,99.99
2022-12-07T05:35:41.783Z,99.85
2022-12-07T05:36:41.806Z,99.85
2022-12-07T05:37:41.797Z,99.99
2022-12-07T05:38:41.763Z,99.85
2022-12-07T05:39:41.741Z,99.99
2022-12-07T05:40:41.743Z,99.99
2022-12-07T05:41:41.706Z,99.99
2022-12-07T05:42:41.733Z,99.99
2022-12-07T05:43:41.705Z,99.99
2022-12-07T05:44:41.684Z,99.99
2022-12-07T05:45:41.725Z,99.99
2022-12-07T05:46:41.682Z,99.99
2022-12-07T05:47:41.647Z,99.99
2022-12-07T05:48:41.647Z,99.99
2022-12-07T05:49:41.627Z,99.99
2022-12-07T05:50:41.710Z,99.91
2022-12-07T05:51:41.619Z,99.99
2022-12-07T05:52:41.598Z,99.99
2022-12-07T05:53:41.587Z,99.99
2022-12-07T05:54:41.605Z,99.99
2022-12-07T05:55:41.559Z,99.99
2022-12-07T05:56:41.572Z,99.99
2022-12-07T05:57:41.535Z,99.99
2022-12-07T05:58:41.529Z,99.99
2022-12-07T05:59:41.545Z,99.99
2022-12-07T06:00:41.502Z,99.99
2022-12-07T06:01:41.638Z,99.99
2022-12-07T06:02:41.751Z,99.99
2022-12-07T06:03:41.471Z,99.99
2022-12-07T06:04:41.498Z,99.99
2022-12-07T06:05:41.450Z,99.99
2022-12-07T06:06:41.537Z,99.99
2022-12-07T06:07:41.546Z,99.99
2022-12-07T06:08:41.464Z,99.99
2022-12-07T06:09:41.402Z,99.99
2022-12-07T06:10:41.426Z,99.99
2022-12-07T06:11:41.399Z,99.99
2022-12-07T06:12:41.375Z,99.99
2022-12-07T06:13:47.036Z,99.99
2022-12-07T06:14:42.371Z,99.99
2022-12-07T06:15:41.340Z,99.99
2022-12-07T06:16:41.428Z,99.99
2022-12-07T06:17:41.367Z,99.99
2022-12-07T06:18:41.307Z,99.99
2022-12-07T06:19:41.311Z,99.99
2022-12-07T06:20:41.286Z,99.99
2022-12-07T06:21:41.273Z,99.99
2022-12-07T06:22:41.280Z,99.99
2022-12-07T06:23:41.244Z,99.99
2022-12-07T06:24:41.283Z,99.99
2022-12-07T06:25:41.259Z,99.99
2022-12-07T06:26:41.246Z,99.99
2022-12-07T06:27:41.222Z,99.99
2022-12-07T06:28:41.192Z,99.99
2022-12-07T06:29:41.181Z,99.99
2022-12-07T06:30:41.211Z,99.99
2022-12-07T06:31:41.222Z,99.99
2022-12-07T06:32:41.171Z,99.99
2022-12-07T06:33:41.273Z,99.99
2022-12-07T06:34:41.134Z,99.99
2022-12-07T06:35:41.139Z,99.99
2022-12-07T06:36:41.115Z,99.99
2022-12-07T06:37:41.103Z,99.99
2022-12-07T06:38:41.105Z,99.99
2022-12-07T06:39:41.072Z,99.99
2022-12-07T06:40:41.055Z,99.99
2022-12-07T06:41:41.048Z,99.99
2022-12-07T06:42:41.058Z,99.99
2022-12-07T06:43:41.042Z,99.99
2022-12-07T06:44:41.019Z,99.99
2022-12-07T06:45:41.039Z,99.99
2022-12-07T06:46:41.034Z,99.99
2022-12-07T06:47:42.198Z,99.99
2022-12-07T06:48:40.977Z,99.99
2022-12-07T06:49:40.952Z,99.99
2022-12-07T06:50:41.499Z,99.99
2022-12-07T06:51:41.142Z,99.99
2022-12-07T06:52:40.964Z,99.99
2022-12-07T06:53:40.925Z,99.99
2022-12-07T06:54:40.929Z,99.99
2022-12-07T06:55:41.048Z,99.99
2022-12-07T06:56:40.888Z,99.99
2022-12-07T06:57:40.863Z,99.99
2022-12-07T06:58:40.892Z,99.99
2022-12-07T06:59:40.860Z,99.99
2022-12-07T07:00:40.866Z,99.99
2022-12-07T07:01:40.870Z,99.99
2022-12-07T07:02:40.871Z,99.99
2022-12-07T07:03:40.809Z,99.99
2022-12-07T07:04:40.825Z,99.99
2022-12-07T07:05:40.806Z,99.99
2022-12-07T07:06:40.773Z,99.99
2022-12-07T07:07:58.145Z,99.99
2022-12-07T07:08:41.847Z,99.99
2022-12-07T07:09:40.750Z,99.99
2022-12-07T07:10:40.791Z,99.99
2022-12-07T07:11:40.714Z,99.99
2022-12-07T07:12:40.724Z,99.99
2022-12-07T07:13:40.685Z,99.99
2022-12-07T07:14:40.699Z,99.99
2022-12-07T07:15:40.681Z,99.99
2022-12-07T07:16:40.722Z,99.99
2022-12-07T07:17:40.636Z,99.99
2022-12-07T07:18:40.640Z,99.99
2022-12-07T07:19:40.620Z,99.99
2022-12-07T07:20:40.635Z,99.99
2022-12-07T07:21:40.616Z,99.99
2022-12-07T07:22:40.624Z,99.99
2022-12-07T07:23:40.582Z,99.99
2022-12-07T07:24:40.571Z,99.99
2022-12-07T07:25:40.572Z,99.99
2022-12-07T07:26:40.555Z,99.99
2022-12-07T07:27:40.529Z,99.99
2022-12-07T07:28:40.566Z,99.99
2022-12-07T07:29:40.510Z,99.99
2022-12-07T07:30:40.626Z,99.99
2022-12-07T07:31:40.486Z,99.99
2022-12-07T07:32:40.486Z,99.99
2022-12-07T07:33:40.494Z,99.99
2022-12-07T07:34:40.460Z,99.99
2022-12-07T07:35:40.442Z,99.99
2022-12-07T07:36:40.436Z,99.99
2022-12-07T07:37:40.422Z,99.99
2022-12-07T07:38:40.432Z,99.99
2022-12-07T07:39:40.418Z,99.99
2022-12-07T07:40:40.395Z,99.99
2022-12-07T07:41:40.395Z,99.99
2022-12-07T07:42:40.375Z,99.99
2022-12-07T07:43:40.354Z,99.99
2022-12-07T07:44:40.387Z,99.99
2022-12-07T07:45:40.424Z,99.99
2022-12-07T07:46:40.420Z,99.99
2022-12-07T07:47:40.330Z,99.99
2022-12-07T07:48:40.304Z,99.99
2022-12-07T07:49:46.118Z,99.99
2022-12-07T07:50:41.281Z,99.99
2022-12-07T07:51:40.313Z,99.99
2022-12-07T07:52:40.262Z,99.99
2022-12-07T07:53:40.243Z,99.99
2022-12-07T07:54:40.242Z,99.99
2022-12-07T07:55:40.220Z,99.99
2022-12-07T07:56:40.234Z,99.99
2022-12-07T07:57:40.207Z,99.99
2022-12-07T07:58:40.193Z,99.99
2022-12-07T07:59:40.177Z,99.99
2022-12-07T08:00:40.173Z,99.99
2022-12-07T08:01:40.230Z,99.99
2022-12-07T08:02:40.164Z,99.99
2022-12-07T08:03:40.152Z,99.99
2022-12-07T08:04:40.189Z,99.99
2022-12-07T08:05:40.116Z,99.99
2022-12-07T08:06:40.125Z,99.99
2022-12-07T08:07:40.164Z,99.99
2022-12-07T08:08:40.086Z,99.99
2022-12-07T08:09:40.090Z,99.99
2022-12-07T08:10:40.075Z,99.99
2022-12-07T08:11:40.059Z,99.99
2022-12-07T08:12:40.031Z,99.99
2022-12-07T08:13:40.037Z,99.99
2022-12-07T08:14:40.040Z,99.99
2022-12-07T08:15:40.062Z,99.99
2022-12-07T08:16:40.010Z,99.99
2022-12-07T08:17:39.981Z,99.99
2022-12-07T08:18:39.986Z,99.99
2022-12-07T08:19:39.952Z,99.99
2022-12-07T08:20:39.949Z,99.99
2022-12-07T08:21:39.969Z,99.99
2022-12-07T08:22:39.928Z,99.99
2022-12-07T08:23:40.270Z,99.99
2022-12-07T08:24:39.906Z,99.99
2022-12-07T08:25:39.885Z,99.99
2022-12-07T08:26:39.915Z,99.99
2022-12-07T08:27:39.883Z,99.99
2022-12-07T08:28:39.858Z,99.99
2022-12-07T08:29:39.843Z,99.99
2022-12-07T08:30:39.903Z,99.99
2022-12-07T08:31:39.919Z,99.99
2022-12-07T08:32:39.815Z,99.99
2022-12-07T08:33:39.816Z,99.99
2022-12-07T08:34:39.829Z,99.99
2022-12-07T08:35:39.775Z,99.99
2022-12-07T08:36:39.787Z,99.99
2022-12-07T08:37:39.754Z,99.99
2022-12-07T08:38:39.749Z,99.99
2022-12-07T08:39:39.747Z,99.99
2022-12-07T08:40:39.726Z,99.99
2022-12-07T08:41:39.737Z,99.99
2022-12-07T08:42:39.720Z,99.99
2022-12-07T08:43:39.684Z,99.99
2022-12-07T08:44:39.683Z,99.99
2022-12-07T08:45:39.675Z,99.99
2022-12-07T08:46:39.760Z,99.99
2022-12-07T08:47:39.663Z,99.99
2022-12-07T08:48:39.636Z,99.99
2022-12-07T08:49:39.618Z,99.99
2022-12-07T08:50:43.173Z,99.99
2022-12-07T08:51:40.634Z,99.99
2022-12-07T08:52:39.592Z,99.99
2022-12-07T08:53:39.584Z,99.99
2022-12-07T08:54:39.568Z,99.99
2022-12-07T08:55:39.561Z,99.99
2022-12-07T08:56:39.562Z,99.99
2022-12-07T08:57:39.565Z,99.99
2022-12-07T08:58:39.517Z,99.99
2022-12-07T08:59:39.517Z,99.99
2022-12-07T09:00:39.498Z,99.99
2022-12-07T09:01:39.568Z,99.99
2022-12-07T09:02:39.494Z,99.99
2022-12-07T09:03:39.484Z,99.99
2022-12-07T09:04:39.455Z,99.99
2022-12-07T09:05:39.484Z,99.99
2022-12-07T09:06:39.643Z,99.99
2022-12-07T09:07:48.337Z,99.99
2022-12-07T09:08:39.408Z,99.99
2022-12-07T09:09:39.402Z,99.99
2022-12-07T09:10:39.389Z,99.99
2022-12-07T09:11:39.391Z,99.99
2022-12-07T09:12:39.386Z,99.99
2022-12-07T09:13:39.360Z,99.99
2022-12-07T09:14:39.352Z,99.99
2022-12-07T09:15:39.401Z,99.99
2022-12-07T09:16:39.399Z,99.99
2022-12-07T09:17:39.305Z,99.99
2022-12-07T09:18:39.302Z,99.99
2022-12-07T09:19:39.309Z,99.99
2022-12-07T09:20:39.293Z,99.99
2022-12-07T09:21:39.267Z,99.99
2022-12-07T09:22:39.280Z,99.99
2022-12-07T09:23:39.264Z,99.99
2022-12-07T09:24:39.237Z,99.99
2022-12-07T09:25:39.242Z,99.99
2022-12-07T09:26:39.202Z,99.99
2022-12-07T09:27:39.242Z,99.99
2022-12-07T09:28:39.186Z,99.99
2022-12-07T09:29:39.197Z,99.99
2022-12-07T09:31:14.511Z,99.99
2022-12-07T09:31:40.224Z,99.99
2022-12-07T09:32:39.276Z,99.99
2022-12-07T09:33:39.161Z,99.99
2022-12-07T09:34:39.251Z,99.99
2022-12-07T09:35:39.112Z,99.99
2022-12-07T09:36:39.100Z,99.99
2022-12-07T09:37:39.122Z,99.99
2022-12-07T09:38:39.151Z,99.99
2022-12-07T09:39:41.240Z,99.99
2022-12-07T09:40:39.067Z,99.99
2022-12-07T09:41:39.043Z,99.99
2022-12-07T09:42:39.248Z,99.99
2022-12-07T09:43:39.026Z,99.99
2022-12-07T09:44:39.025Z,99.99
2022-12-07T09:45:39.556Z,99.99
2022-12-07T09:46:39.079Z,99.99
2022-12-07T09:47:38.980Z,99.99
2022-12-07T09:48:38.969Z,99.99
2022-12-07T09:49:38.955Z,99.99
2022-12-07T09:50:38.993Z,99.99
2022-12-07T09:51:38.939Z,99.99
2022-12-07T09:52:39.484Z,99.99
2022-12-07T09:53:38.913Z,99.99
2022-12-07T09:54:38.931Z,99.99
2022-12-07T09:55:38.887Z,99.99
2022-12-07T09:56:38.892Z,99.99
2022-12-07T09:57:39.053Z,99.99
2022-12-07T09:58:38.853Z,99.99
2022-12-07T09:59:38.921Z,99.99
2022-12-07T10:00:38.836Z,99.99
2022-12-07T10:01:38.896Z,99.99
2022-12-07T10:02:38.808Z,99.99
2022-12-07T10:03:38.852Z,99.99
2022-12-07T10:04:38.871Z,99.99
2022-12-07T10:05:38.776Z,99.99
2022-12-07T10:06:38.757Z,99.99
2022-12-07T10:07:38.848Z,99.99
2022-12-07T10:08:38.738Z,99.99
2022-12-07T10:09:38.751Z,99.99
2022-12-07T10:10:38.827Z,99.99
2022-12-07T10:11:38.737Z,99.99
2022-12-07T10:12:38.692Z,99.99
2022-12-07T10:13:38.688Z,99.99
2022-12-07T10:15:07.915Z,99.99
2022-12-07T10:15:39.713Z,99.99
2022-12-07T10:16:38.747Z,99.99
2022-12-07T10:17:38.642Z,99.99
2022-12-07T10:18:38.692Z,99.99
2022-12-07T10:19:38.661Z,99.99
2022-12-07T10:20:38.618Z,99.99
2022-12-07T10:21:38.607Z,99.99
2022-12-07T10:22:38.586Z,99.99
2022-12-07T10:23:38.589Z,99.99
2022-12-07T10:24:38.593Z,99.99
2022-12-07T10:25:38.548Z,99.99
2022-12-07T10:26:38.569Z,99.99
2022-12-07T10:27:38.528Z,99.99
2022-12-07T10:28:42.042Z,99.99
2022-12-07T10:29:38.537Z,99.99
2022-12-07T10:30:38.494Z,99.99
2022-12-07T10:31:38.551Z,99.99
2022-12-07T10:32:38.491Z,99.99
2022-12-07T10:33:38.465Z,99.99
2022-12-07T10:34:42.707Z,99.99
2022-12-07T10:35:39.441Z,99.99
2022-12-07T10:36:38.445Z,99.99
2022-12-07T10:37:38.434Z,99.99
2022-12-07T10:38:38.404Z,99.99
2022-12-07T10:39:38.434Z,99.99
2022-12-07T10:40:39.790Z,99.99
2022-12-07T10:41:39.371Z,99.99
2022-12-07T10:42:38.397Z,99.99
2022-12-07T10:43:38.359Z,99.99
2022-12-07T10:44:38.333Z,99.99
2022-12-07T10:45:46.973Z,99.99
2022-12-07T10:46:39.363Z,99.99
2022-12-07T10:47:38.345Z,99.99
2022-12-07T10:48:38.290Z,99.99
2022-12-07T10:49:38.309Z,99.99
2022-12-07T10:50:38.298Z,99.99
2022-12-07T10:51:39.742Z,99.99
2022-12-07T10:52:38.260Z,99.99
2022-12-07T10:53:38.235Z,99.99
2022-12-07T10:54:38.241Z,99.99
2022-12-07T10:55:38.221Z,99.85
2022-12-07T10:56:38.262Z,99.75
2022-12-07T10:57:38.211Z,99.80
2022-12-07T10:58:38.217Z,99.99
2022-12-07T10:59:38.171Z,99.99
2022-12-07T11:00:38.219Z,99.99
2022-12-07T11:01:38.275Z,99.96
2022-12-07T11:02:38.223Z,99.99
2022-12-07T11:03:38.132Z,99.99
2022-12-07T11:04:38.145Z,99.85
2022-12-07T11:05:38.104Z,99.90
2022-12-07T11:06:38.090Z,99.99
2022-12-07T11:07:38.169Z,99.99
2022-12-07T11:08:38.162Z,99.99
2022-12-07T11:10:06.812Z,99.96
2022-12-07T11:10:39.046Z,99.85
2022-12-07T11:11:38.037Z,99.99
2022-12-07T11:12:38.023Z,99.75
2022-12-07T11:13:38.040Z,99.99
2022-12-07T11:14:38.039Z,99.99
2022-12-07T11:15:38.017Z,99.33
2022-12-07T11:16:38.053Z,99.99
2022-12-07T11:17:37.971Z,99.44
2022-12-07T11:18:37.961Z,99.65
2022-12-07T11:19:37.971Z,99.65
2022-12-07T11:20:37.933Z,99.65
2022-12-07T11:21:37.940Z,99.90
2022-12-07T11:22:37.908Z,99.54
2022-12-07T11:23:37.928Z,99.96
2022-12-07T11:24:37.907Z,99.99
2022-12-07T11:25:37.880Z,99.69
2022-12-07T11:26:37.869Z,99.99
2022-12-07T11:27:37.872Z,99.99
2022-12-07T11:28:37.871Z,99.59
2022-12-07T11:29:37.844Z,99.69
2022-12-07T11:30:37.836Z,99.90
2022-12-07T11:31:37.833Z,99.85
2022-12-07T11:32:37.819Z,99.99
2022-12-07T11:33:37.823Z,99.38
2022-12-07T11:34:37.778Z,99.38
2022-12-07T11:35:37.796Z,99.48
2022-12-07T11:36:37.758Z,99.69
2022-12-07T11:38:37.735Z,99.59
2022-12-07T11:39:37.744Z,99.99
2022-12-07T11:40:37.726Z,99.99
2022-12-07T11:41:37.702Z,99.69
2022-12-07T11:42:37.687Z,99.99
2022-12-07T11:43:37.689Z,99.90
2022-12-07T11:44:37.663Z,99.96
2022-12-07T11:45:37.700Z,99.99
2022-12-07T11:46:37.718Z,99.96
2022-12-07T11:47:37.635Z,99.99
2022-12-07T11:48:37.623Z,99.99
2022-12-07T11:49:37.617Z,99.99
2022-12-07T11:50:37.621Z,99.80
2022-12-07T11:51:37.608Z,99.99
2022-12-07T11:52:37.602Z,99.99
2022-12-07T11:53:37.570Z,99.96
2022-12-07T11:54:37.558Z,99.99
2022-12-07T11:55:37.549Z,99.90
2022-12-07T11:56:37.552Z,99.99
2022-12-07T11:57:37.525Z,99.99
2022-12-07T11:58:37.527Z,99.99
2022-12-07T11:59:37.611Z,99.99
2022-12-07T12:00:37.490Z,99.99
2022-12-07T12:01:37.574Z,99.99
2022-12-07T12:02:37.554Z,99.99
2022-12-07T12:03:37.547Z,99.96
2022-12-07T12:04:37.442Z,99.90
2022-12-07T12:05:37.436Z,99.59
2022-12-07T12:06:37.462Z,99.23
2022-12-07T12:10:37.378Z,99.75
2022-12-07T12:11:37.363Z,99.85
2022-12-07T12:14:40.732Z,99.54
2022-12-07T12:15:38.321Z,99.65
2022-12-07T12:16:37.417Z,99.65
2022-12-07T12:17:37.304Z,99.85
2022-12-07T12:18:37.330Z,99.65
2022-12-07T12:19:37.302Z,99.23
2022-12-07T12:20:37.262Z,99.33
2022-12-07T12:21:37.286Z,99.23
2022-12-07T12:22:37.260Z,98.92
2022-12-07T12:23:37.243Z,98.92
2022-12-07T12:24:37.235Z,99.02
2022-12-07T12:25:37.276Z,99.02
2022-12-07T12:26:37.202Z,98.97
2022-12-07T12:27:37.196Z,99.02
2022-12-07T12:28:37.173Z,98.29
2022-12-07T12:29:37.171Z,98.08
2022-12-07T12:30:37.161Z,98.50
2022-12-07T12:31:37.186Z,99.23
2022-12-07T12:32:37.130Z,98.82
2022-12-07T12:33:37.126Z,99.23
2022-12-07T12:34:37.159Z,98.77
2022-12-07T12:35:37.107Z,98.87
2022-12-07T12:36:37.183Z,98.50
2022-12-07T12:37:37.080Z,97.98
2022-12-07T12:38:37.079Z,97.98
2022-12-07T12:39:37.077Z,98.82
2022-12-07T12:40:37.041Z,98.92
2022-12-07T12:41:37.040Z,98.92
2022-12-07T12:42:37.029Z,98.82
2022-12-07T12:43:37.012Z,98.92
2022-12-07T12:44:36.997Z,98.82
2022-12-07T12:45:37.098Z,98.92
2022-12-07T12:46:36.975Z,99.02
2022-12-07T12:47:36.967Z,98.77
2022-12-07T12:48:36.952Z,98.29
2022-12-07T12:49:36.948Z,99.23
2022-12-07T12:50:36.946Z,99.23
2022-12-07T12:51:36.957Z,99.23
2022-12-07T12:52:36.907Z,99.02
2022-12-07T12:53:36.905Z,99.23
2022-12-07T12:54:36.888Z,98.77
2022-12-07T12:55:36.880Z,98.08
2022-12-07T12:56:36.889Z,98.35
2022-12-07T12:57:36.856Z,97.98
2022-12-07T12:58:36.848Z,98.08